Jordao, Brazil
Current Conditions -  °F | °C
As of 7:00 PM on Saturday 22 Nov 2014 (Local Time) from SBCZ Reporting Station
Broken Clouds Broken Clouds  
Wind Chill: 77°   Ceiling: 10000
Heat Index: 78°   Visibility: 6mi
Dew Point: 77°   Wind: 2mph
Humidity: 100%   Direction: 140°SE
Pressure: 29.74"   Gusts: NA
Location:  9.43°S, 71.88°W
Report Text: SBCZ 222300Z 14002KT 9999 FEW015 BKN100 25/25 Q1007
Loading
Personal Weather Stations






























Interactive Weather Map New forecast layout! Learn more

10-Day Weather Forecast

Advertisements
Track Severe Weather on mobile